createdAt,value
2022-10-08T00:02:54.196Z,0
2022-10-08T00:12:31.840Z,0
2022-10-08T00:22:09.213Z,0
2022-10-08T00:31:46.672Z,0
2022-10-08T00:51:00.585Z,0
2022-10-08T01:00:37.676Z,0
2022-10-08T01:10:14.971Z,0
2022-10-08T01:19:51.641Z,0
2022-10-08T01:29:28.452Z,0
2022-10-08T01:39:05.244Z,0
2022-10-08T01:48:41.957Z,0
2022-10-08T01:58:19.136Z,0
2022-10-08T02:07:56.167Z,0
2022-10-08T02:17:33.745Z,0
2022-10-08T02:36:48.134Z,0
2022-10-08T02:56:02.106Z,0
2022-10-08T03:05:39.709Z,0
2022-10-08T03:15:17.283Z,0
2022-10-08T03:24:56.655Z,0
2022-10-08T03:34:30.462Z,0
2022-10-08T03:44:07.379Z,0
2022-10-08T03:53:44.494Z,0
2022-10-08T04:03:21.153Z,0
2022-10-08T04:12:57.773Z,0
2022-10-08T04:22:34.688Z,0
2022-10-08T04:32:11.659Z,0
2022-10-08T04:41:48.663Z,0
2022-10-08T04:51:25.741Z,0
2022-10-08T05:01:03.065Z,0
2022-10-08T05:10:40.212Z,0
2022-10-08T05:20:16.932Z,0
2022-10-08T05:29:53.979Z,5.63
2022-10-08T05:39:30.257Z,22.5
2022-10-08T05:58:44.964Z,50.63
2022-10-08T06:17:59.821Z,78.75
2022-10-08T06:27:37.213Z,101.25
2022-10-08T06:37:15.013Z,123.75
2022-10-08T06:46:52.650Z,157.5
2022-10-08T06:56:30.040Z,174.38
2022-10-08T07:06:07.939Z,191.25
2022-10-08T07:15:46.095Z,196.88
2022-10-08T07:25:24.191Z,174.38
2022-10-08T07:35:02.131Z,202.5
2022-10-08T07:44:40.126Z,196.88
2022-10-08T07:54:18.127Z,196.88
2022-10-08T08:03:56.215Z,180
2022-10-08T08:13:36.888Z,236.25
2022-10-08T08:23:11.674Z,191.25
2022-10-08T09:11:20.708Z,225
2022-10-08T09:20:57.616Z,303.75
2022-10-08T09:30:34.981Z,264.38
2022-10-08T09:40:12.859Z,264.38
2022-10-08T09:49:50.810Z,298.13
2022-10-08T10:09:09.173Z,568.13
2022-10-08T10:18:49.711Z,680.63
2022-10-08T10:28:25.250Z,348.75
2022-10-08T10:38:01.034Z,208.13
2022-10-08T10:47:36.975Z,151.88
2022-10-08T10:57:12.712Z,95.63
2022-10-08T11:06:49.953Z,106.88
2022-10-08T11:16:26.029Z,106.88
2022-10-08T11:26:20.723Z,135
2022-10-08T11:35:40.656Z,123.75
2022-10-08T11:45:16.624Z,112.5
2022-10-08T12:04:29.707Z,140.63
2022-10-08T12:14:07.181Z,185.63
2022-10-08T12:23:46.190Z,230.63
2022-10-08T12:43:01.953Z,151.88
2022-10-08T12:52:38.316Z,135
2022-10-08T13:02:14.122Z,157.5
2022-10-08T13:11:57.275Z,540
2022-10-08T13:21:31.201Z,315
2022-10-08T13:31:09.772Z,258.75
2022-10-08T13:40:52.313Z,1305
2022-10-08T13:50:39.817Z,765
2022-10-08T14:00:37.845Z,675
2022-10-08T14:10:25.962Z,1985.63
2022-10-08T14:19:32.159Z,495
2022-10-08T14:29:05.559Z,3020.63
2022-10-08T14:39:03.892Z,2756.25
2022-10-08T14:48:45.821Z,2064.38
2022-10-08T14:58:08.739Z,1800
2022-10-08T15:17:07.589Z,331.88
2022-10-08T15:26:39.276Z,73.13
2022-10-08T15:36:11.132Z,84.38
2022-10-08T15:45:45.455Z,56.25
2022-10-08T15:55:20.883Z,78.75
2022-10-08T16:04:57.728Z,73.13
2022-10-08T16:14:32.698Z,45
2022-10-08T16:24:07.873Z,28.13
2022-10-08T16:33:43.603Z,11.25
2022-10-08T16:43:19.019Z,5.63
2022-10-08T16:52:55.422Z,0
2022-10-08T17:12:07.898Z,0
2022-10-08T17:21:44.393Z,0
2022-10-08T17:31:21.164Z,0
2022-10-08T17:40:57.314Z,0
2022-10-08T17:50:33.499Z,0
2022-10-08T18:09:46.546Z,0
2022-10-08T18:19:22.569Z,0
2022-10-08T18:28:59.241Z,0
2022-10-08T18:38:36.068Z,0
2022-10-08T18:48:12.910Z,0
2022-10-08T19:07:25.923Z,0
2022-10-08T19:17:02.768Z,0
2022-10-08T19:26:39.560Z,0
2022-10-08T19:36:16.150Z,0
2022-10-08T19:45:52.695Z,0
2022-10-08T19:55:29.566Z,0
2022-10-08T20:05:06.118Z,0
2022-10-08T20:14:42.586Z,0
2022-10-08T20:24:19.685Z,0
2022-10-08T20:33:56.661Z,0
2022-10-08T20:43:33.559Z,0
2022-10-08T20:53:10.089Z,0
2022-10-08T21:02:46.718Z,0
2022-10-08T21:12:23.409Z,0
2022-10-08T21:22:01.066Z,0
2022-10-08T21:31:36.609Z,0
2022-10-08T21:41:12.817Z,0
2022-10-08T21:50:49.411Z,0
2022-10-08T22:00:26.328Z,0
2022-10-08T22:19:39.327Z,0
2022-10-08T22:38:53.215Z,0
2022-10-08T22:48:29.798Z,0
2022-10-08T22:58:06.541Z,0
2022-10-08T23:07:43.664Z,0
2022-10-08T23:17:20.520Z,0
2022-10-08T23:26:57.348Z,0
2022-10-08T23:36:34.261Z,0
2022-10-08T23:46:11.085Z,0
2022-10-08T23:55:46.750Z,0
